sensor_id;sensor_type;location;lat;lon;timestamp;pressure;altitude;pressure_sealevel;temperature;humidity
19831;BME280;10076;52.008;4.708;2023-02-28T00:00:36;103167.97;;;5.66;100.00
19831;BME280;10076;52.008;4.708;2023-02-28T00:03:02;103162.78;;;5.61;100.00
19831;BME280;10076;52.008;4.708;2023-02-28T00:05:28;103169.59;;;5.73;100.00
19831;BME280;10076;52.008;4.708;2023-02-28T00:07:54;103170.88;;;5.45;100.00
19831;BME280;10076;52.008;4.708;2023-02-28T00:10:23;103177.56;;;5.65;100.00
19831;BME280;10076;52.008;4.708;2023-02-28T00:12:53;103182.78;;;5.68;100.00
19831;BME280;10076;52.008;4.708;2023-02-28T00:15:19;103174.06;;;5.66;100.00
19831;BME280;10076;52.008;4.708;2023-02-28T00:17:45;103188.81;;;5.75;100.00
19831;BME280;10076;52.008;4.708;2023-02-28T00:20:11;103186.91;;;5.89;100.00
19831;BME280;10076;52.008;4.708;2023-02-28T00:22:38;103188.63;;;5.90;100.00
19831;BME280;10076;52.008;4.708;2023-02-28T00:25:04;103184.13;;;5.98;100.00
19831;BME280;10076;52.008;4.708;2023-02-28T00:27:32;103188.03;;;6.28;100.00
19831;BME280;10076;52.008;4.708;2023-02-28T00:29:57;103184.22;;;6.47;100.00
19831;BME280;10076;52.008;4.708;2023-02-28T00:32:22;103180.69;;;6.48;100.00
19831;BME280;10076;52.008;4.708;2023-02-28T00:34:48;103186.03;;;6.44;100.00
19831;BME280;10076;52.008;4.708;2023-02-28T00:37:13;103185.09;;;6.48;100.00
19831;BME280;10076;52.008;4.708;2023-02-28T00:39:39;103183.94;;;6.64;100.00
19831;BME280;10076;52.008;4.708;2023-02-28T00:42:06;103186.69;;;6.56;100.00
19831;BME280;10076;52.008;4.708;2023-02-28T00:44:32;103185.72;;;6.63;100.00
19831;BME280;10076;52.008;4.708;2023-02-28T00:46:57;103184.94;;;6.58;100.00
19831;BME280;10076;52.008;4.708;2023-02-28T00:49:23;103180.25;;;6.74;100.00
19831;BME280;10076;52.008;4.708;2023-02-28T00:51:49;103171.31;;;6.85;100.00
19831;BME280;10076;52.008;4.708;2023-02-28T00:54:15;103178.38;;;6.82;100.00
19831;BME280;10076;52.008;4.708;2023-02-28T00:56:40;103178.28;;;6.86;100.00
19831;BME280;10076;52.008;4.708;2023-02-28T00:59:06;103173.97;;;6.82;100.00
19831;BME280;10076;52.008;4.708;2023-02-28T01:01:31;103179.19;;;6.85;100.00
19831;BME280;10076;52.008;4.708;2023-02-28T01:03:57;103170.44;;;6.83;100.00
19831;BME280;10076;52.008;4.708;2023-02-28T01:06:22;103180.06;;;6.84;100.00
19831;BME280;10076;52.008;4.708;2023-02-28T01:08:47;103186.03;;;6.93;100.00
19831;BME280;10076;52.008;4.708;2023-02-28T01:11:15;103193.94;;;6.92;100.00
19831;BME280;10076;52.008;4.708;2023-02-28T01:13:42;103189.56;;;6.91;100.00
19831;BME280;10076;52.008;4.708;2023-02-28T01:16:08;103189.56;;;6.91;100.00
19831;BME280;10076;52.008;4.708;2023-02-28T01:18:33;103189.63;;;6.88;100.00
19831;BME280;10076;52.008;4.708;2023-02-28T01:21:05;103187.97;;;6.83;100.00
19831;BME280;10076;52.008;4.708;2023-02-28T01:23:31;103187.06;;;6.85;100.00
19831;BME280;10076;52.008;4.708;2023-02-28T01:25:57;103183.44;;;6.90;100.00
19831;BME280;10076;52.008;4.708;2023-02-28T01:28:22;103186.06;;;6.90;100.00
19831;BME280;10076;52.008;4.708;2023-02-28T01:30:51;103185.91;;;6.99;100.00
19831;BME280;10076;52.008;4.708;2023-02-28T01:33:16;103176.22;;;7.03;100.00
19831;BME280;10076;52.008;4.708;2023-02-28T01:35:41;103182.28;;;7.05;100.00
19831;BME280;10076;52.008;4.708;2023-02-28T01:38:07;103178.69;;;7.10;100.00
19831;BME280;10076;52.008;4.708;2023-02-28T01:40:32;103173.81;;;6.91;100.00
19831;BME280;10076;52.008;4.708;2023-02-28T01:42:57;103181.59;;;6.97;100.00
19831;BME280;10076;52.008;4.708;2023-02-28T01:45:30;103173.56;;;7.04;100.00
19831;BME280;10076;52.008;4.708;2023-02-28T01:47:58;103179.50;;;7.14;100.00
19831;BME280;10076;52.008;4.708;2023-02-28T01:50:28;103169.16;;;7.06;100.00
19831;BME280;10076;52.008;4.708;2023-02-28T01:52:57;103158.59;;;7.08;100.00
19831;BME280;10076;52.008;4.708;2023-02-28T01:55:25;103162.97;;;7.09;100.00
19831;BME280;10076;52.008;4.708;2023-02-28T01:57:55;103164.72;;;7.08;100.00
19831;BME280;10076;52.008;4.708;2023-02-28T02:00:23;103161.88;;;7.19;100.00
19831;BME280;10076;52.008;4.708;2023-02-28T02:02:52;103170.78;;;7.12;100.00
19831;BME280;10076;52.008;4.708;2023-02-28T02:05:21;103161.91;;;7.17;100.00
19831;BME280;10076;52.008;4.708;2023-02-28T02:07:49;103171.28;;;7.30;100.00
19831;BME280;10076;52.008;4.708;2023-02-28T02:10:16;103154.84;;;7.21;100.00
19831;BME280;10076;52.008;4.708;2023-02-28T02:15:56;103159.91;;;7.30;100.00
19831;BME280;10076;52.008;4.708;2023-02-28T02:32:19;103138.16;;;7.23;100.00
19831;BME280;10076;52.008;4.708;2023-02-28T02:37:51;103142.22;;;7.38;100.00
19831;BME280;10076;52.008;4.708;2023-02-28T02:40:43;103131.75;;;7.35;100.00
19831;BME280;10076;52.008;4.708;2023-02-28T02:43:36;103133.56;;;7.33;100.00
19831;BME280;10076;52.008;4.708;2023-02-28T02:46:12;103133.56;;;7.33;100.00
19831;BME280;10076;52.008;4.708;2023-02-28T02:48:41;103133.16;;;7.52;100.00
19831;BME280;10076;52.008;4.708;2023-02-28T02:51:13;103133.19;;;7.49;100.00
19831;BME280;10076;52.008;4.708;2023-02-28T02:54:00;103138.38;;;7.53;100.00
19831;BME280;10076;52.008;4.708;2023-02-28T02:56:29;103137.97;;;7.31;100.00
19831;BME280;10076;52.008;4.708;2023-02-28T02:59:03;103138.50;;;7.48;100.00
19831;BME280;10076;52.008;4.708;2023-02-28T03:01:31;103142.09;;;7.44;100.00
19831;BME280;10076;52.008;4.708;2023-02-28T03:03:59;103137.69;;;7.44;100.00
19831;BME280;10076;52.008;4.708;2023-02-28T03:06:26;103130.56;;;7.49;100.00
19831;BME280;10076;52.008;4.708;2023-02-28T03:08:52;103145.66;;;7.40;100.00
19831;BME280;10076;52.008;4.708;2023-02-28T03:11:17;103146.47;;;7.45;100.00
19831;BME280;10076;52.008;4.708;2023-02-28T03:13:57;103142.16;;;7.41;100.00
19831;BME280;10076;52.008;4.708;2023-02-28T03:16:49;103155.31;;;7.39;100.00
19831;BME280;10076;52.008;4.708;2023-02-28T03:24:49;103157.09;;;7.39;100.00
19831;BME280;10076;52.008;4.708;2023-02-28T03:27:30;103160.06;;;7.22;100.00
19831;BME280;10076;52.008;4.708;2023-02-28T03:30:20;103156.47;;;7.28;100.00
19831;BME280;10076;52.008;4.708;2023-02-28T03:33:10;103153.84;;;7.26;100.00
19831;BME280;10076;52.008;4.708;2023-02-28T03:36:08;103157.91;;;7.41;100.00
19831;BME280;10076;52.008;4.708;2023-02-28T03:38:46;103147.72;;;7.26;100.00
19831;BME280;10076;52.008;4.708;2023-02-28T03:41:16;103152.19;;;7.22;100.00
19831;BME280;10076;52.008;4.708;2023-02-28T03:44:12;103154.72;;;7.27;100.00
19831;BME280;10076;52.008;4.708;2023-02-28T03:46:46;103152.38;;;7.12;100.00
19831;BME280;10076;52.008;4.708;2023-02-28T03:49:18;103142.59;;;7.20;100.00
19831;BME280;10076;52.008;4.708;2023-02-28T03:51:46;103141.91;;;7.10;100.00
19831;BME280;10076;52.008;4.708;2023-02-28T03:54:16;103141.91;;;7.10;100.00
19831;BME280;10076;52.008;4.708;2023-02-28T03:56:50;103146.22;;;7.13;100.00
19831;BME280;10076;52.008;4.708;2023-02-28T03:59:28;103149.63;;;7.18;100.00
19831;BME280;10076;52.008;4.708;2023-02-28T04:01:57;103145.25;;;7.17;100.00
19831;BME280;10076;52.008;4.708;2023-02-28T04:04:23;103146.06;;;7.22;100.00
19831;BME280;10076;52.008;4.708;2023-02-28T04:06:50;103148.47;;;7.32;100.00
19831;BME280;10076;52.008;4.708;2023-02-28T04:09:16;103141.72;;;7.19;100.00
19831;BME280;10076;52.008;4.708;2023-02-28T04:11:50;103142.69;;;7.15;100.00
19831;BME280;10076;52.008;4.708;2023-02-28T04:14:17;103147.69;;;7.27;100.00
19831;BME280;10076;52.008;4.708;2023-02-28T04:16:42;103143.53;;;7.17;100.00
19831;BME280;10076;52.008;4.708;2023-02-28T04:19:09;103147.09;;;7.15;100.00
19831;BME280;10076;52.008;4.708;2023-02-28T04:21:43;103151.19;;;7.28;100.00
19831;BME280;10076;52.008;4.708;2023-02-28T04:24:11;103146.06;;;7.22;100.00
19831;BME280;10076;52.008;4.708;2023-02-28T04:26:40;103151.19;;;7.28;100.00
19831;BME280;10076;52.008;4.708;2023-02-28T04:29:05;103156.63;;;7.19;100.00
19831;BME280;10076;52.008;4.708;2023-02-28T04:31:31;103160.25;;;7.12;100.00
19831;BME280;10076;52.008;4.708;2023-02-28T04:33:57;103157.63;;;7.13;100.00
19831;BME280;10076;52.008;4.708;2023-02-28T04:36:22;103163.53;;;7.23;100.00
19831;BME280;10076;52.008;4.708;2023-02-28T04:38:48;103156.50;;;7.25;100.00
19831;BME280;10076;52.008;4.708;2023-02-28T04:41:14;103148.69;;;7.20;100.00
19831;BME280;10076;52.008;4.708;2023-02-28T04:43:39;103154.03;;;7.17;100.00
19831;BME280;10076;52.008;4.708;2023-02-28T04:46:05;103152.56;;;7.03;100.00
19831;BME280;10076;52.008;4.708;2023-02-28T04:48:33;103162.22;;;7.01;100.00
19831;BME280;10076;52.008;4.708;2023-02-28T04:51:08;103162.56;;;6.83;100.00
19831;BME280;10076;52.008;4.708;2023-02-28T04:53:35;103158.44;;;6.72;100.00
19831;BME280;10076;52.008;4.708;2023-02-28T04:56:00;103156.41;;;6.85;100.00
19831;BME280;10076;52.008;4.708;2023-02-28T04:58:26;103164.19;;;6.90;100.00
19831;BME280;10076;52.008;4.708;2023-02-28T05:00:54;103171.00;;;7.00;100.00
19831;BME280;10076;52.008;4.708;2023-02-28T05:03:20;103164.03;;;6.99;100.00
19831;BME280;10076;52.008;4.708;2023-02-28T05:05:47;103162.31;;;6.98;100.00
19831;BME280;10076;52.008;4.708;2023-02-28T05:08:12;103157.75;;;7.06;100.00
19831;BME280;10076;52.008;4.708;2023-02-28T05:10:38;103160.34;;;7.09;100.00
19831;BME280;10076;52.008;4.708;2023-02-28T05:13:04;103156.91;;;7.05;100.00
19831;BME280;10076;52.008;4.708;2023-02-28T05:15:29;103164.59;;;7.16;100.00
19831;BME280;10076;52.008;4.708;2023-02-28T05:17:54;103167.91;;;7.24;100.00
19831;BME280;10076;52.008;4.708;2023-02-28T05:20:20;103164.78;;;7.05;100.00
19831;BME280;10076;52.008;4.708;2023-02-28T05:22:46;103170.97;;;7.03;100.00
19831;BME280;10076;52.008;4.708;2023-02-28T05:25:15;103161.38;;;7.00;100.00
19831;BME280;10076;52.008;4.708;2023-02-28T05:27:41;103166.63;;;7.00;100.00
19831;BME280;10076;52.008;4.708;2023-02-28T05:30:07;103169.28;;;6.99;100.00
19831;BME280;10076;52.008;4.708;2023-02-28T05:32:38;103172.84;;;6.95;100.00
19831;BME280;10076;52.008;4.708;2023-02-28T05:35:04;103165.66;;;7.04;100.00
19831;BME280;10076;52.008;4.708;2023-02-28T05:37:29;103167.56;;;6.96;100.00
19831;BME280;10076;52.008;4.708;2023-02-28T05:39:55;103169.28;;;6.99;100.00
19831;BME280;10076;52.008;4.708;2023-02-28T05:42:20;103172.78;;;6.99;100.00
19831;BME280;10076;52.008;4.708;2023-02-28T05:44:46;103176.13;;;7.06;100.00
19831;BME280;10076;52.008;4.708;2023-02-28T05:47:11;103175.38;;;7.01;100.00
19831;BME280;10076;52.008;4.708;2023-02-28T05:49:40;103175.44;;;6.98;100.00
19831;BME280;10076;52.008;4.708;2023-02-28T05:52:05;103181.69;;;6.91;100.00
19831;BME280;10076;52.008;4.708;2023-02-28T05:54:31;103181.31;;;6.64;100.00
19831;BME280;10076;52.008;4.708;2023-02-28T05:56:56;103169.97;;;6.63;100.00
19831;BME280;10076;52.008;4.708;2023-02-28T05:59:21;103175.63;;;6.39;100.00
19831;BME280;10076;52.008;4.708;2023-02-28T06:01:46;103175.03;;;6.22;100.00
19831;BME280;10076;52.008;4.708;2023-02-28T06:04:17;103171.41;;;6.29;100.00
19831;BME280;10076;52.008;4.708;2023-02-28T06:06:45;103168.06;;;6.20;100.00
19831;BME280;10076;52.008;4.708;2023-02-28T06:09:11;103170.75;;;6.16;100.00
19831;BME280;10076;52.008;4.708;2023-02-28T06:11:36;103178.56;;;6.18;100.00
19831;BME280;10076;52.008;4.708;2023-02-28T06:14:03;103177.84;;;6.11;100.00
19831;BME280;10076;52.008;4.708;2023-02-28T06:16:30;103177.09;;;6.01;100.00
19831;BME280;10076;52.008;4.708;2023-02-28T06:18:59;103170.00;;;6.09;100.00
19831;BME280;10076;52.008;4.708;2023-02-28T06:21:26;103179.59;;;6.09;100.00
19831;BME280;10076;52.008;4.708;2023-02-28T06:23:52;103176.16;;;6.05;100.00
19831;BME280;10076;52.008;4.708;2023-02-28T06:26:18;103176.44;;;5.86;100.00
19831;BME280;10076;52.008;4.708;2023-02-28T06:28:44;103171.09;;;5.95;100.00
19831;BME280;10076;52.008;4.708;2023-02-28T06:31:11;103173.69;;;5.96;100.00
19831;BME280;10076;52.008;4.708;2023-02-28T06:33:38;103179.88;;;5.91;100.00
19831;BME280;10076;52.008;4.708;2023-02-28T06:36:04;103176.34;;;5.93;100.00
19831;BME280;10076;52.008;4.708;2023-02-28T06:38:31;103179.25;;;5.71;100.00
19831;BME280;10076;52.008;4.708;2023-02-28T06:40:57;103175.50;;;5.91;100.00
19831;BME280;10076;52.008;4.708;2023-02-28T06:43:24;103177.41;;;5.79;100.00
19831;BME280;10076;52.008;4.708;2023-02-28T06:45:50;103176.59;;;5.74;100.00
19831;BME280;10076;52.008;4.708;2023-02-28T06:48:16;103178.47;;;5.64;100.00
19831;BME280;10076;52.008;4.708;2023-02-28T06:50:42;103187.31;;;5.56;100.00
19831;BME280;10076;52.008;4.708;2023-02-28T06:53:07;103187.31;;;5.56;100.00
19831;BME280;10076;52.008;4.708;2023-02-28T06:55:32;103194.50;;;5.39;100.00
19831;BME280;10076;52.008;4.708;2023-02-28T06:57:58;103198.06;;;5.35;100.00
19831;BME280;10076;52.008;4.708;2023-02-28T07:00:24;103206.84;;;5.31;100.00
19831;BME280;10076;52.008;4.708;2023-02-28T07:02:50;103208.69;;;5.23;100.00
19831;BME280;10076;52.008;4.708;2023-02-28T07:05:15;103209.56;;;5.22;100.00
19831;BME280;10076;52.008;4.708;2023-02-28T07:07:41;103206.25;;;5.08;100.00
19831;BME280;10076;52.008;4.708;2023-02-28T07:10:10;103208.16;;;4.93;100.00
19831;BME280;10076;52.008;4.708;2023-02-28T07:12:36;103216.72;;;5.05;100.00
19831;BME280;10076;52.008;4.708;2023-02-28T07:15:03;103208.97;;;4.96;100.00
19831;BME280;10076;52.008;4.708;2023-02-28T07:17:28;103214.41;;;4.76;100.00
19831;BME280;10076;52.008;4.708;2023-02-28T07:19:54;103213.56;;;4.72;100.00
19831;BME280;10076;52.008;4.708;2023-02-28T07:22:19;103214.34;;;4.81;100.00
19831;BME280;10076;52.008;4.708;2023-02-28T07:24:44;103212.66;;;4.78;100.00
19831;BME280;10076;52.008;4.708;2023-02-28T07:27:10;103218.00;;;4.63;100.00
19831;BME280;10076;52.008;4.708;2023-02-28T07:29:35;103218.03;;;4.60;100.00
19831;BME280;10076;52.008;4.708;2023-02-28T07:32:01;103224.13;;;4.60;100.00
19831;BME280;10076;52.008;4.708;2023-02-28T07:34:26;103219.88;;;4.49;100.00
19831;BME280;10076;52.008;4.708;2023-02-28T07:36:55;103213.72;;;4.53;100.00
19831;BME280;10076;52.008;4.708;2023-02-28T07:39:21;103224.19;;;4.53;100.00
19831;BME280;10076;52.008;4.708;2023-02-28T07:41:46;103230.31;;;4.55;100.00
19831;BME280;10076;52.008;4.708;2023-02-28T07:44:12;103237.19;;;4.65;100.00
19831;BME280;10076;52.008;4.708;2023-02-28T07:46:37;103228.38;;;4.75;100.00
19831;BME280;10076;52.008;4.708;2023-02-28T07:49:03;103230.94;;;4.80;100.00
19831;BME280;10076;52.008;4.708;2023-02-28T07:51:29;103229.16;;;4.87;100.00
19831;BME280;10076;52.008;4.708;2023-02-28T07:53:55;103224.69;;;4.96;100.00
19831;BME280;10076;52.008;4.708;2023-02-28T07:56:21;103217.53;;;5.13;100.00
19831;BME280;10076;52.008;4.708;2023-02-28T07:58:46;103216.63;;;5.14;100.00
19831;BME280;10076;52.008;4.708;2023-02-28T08:01:12;103211.44;;;5.11;100.00
19831;BME280;10076;52.008;4.708;2023-02-28T08:03:38;103214.88;;;5.16;100.00
19831;BME280;10076;52.008;4.708;2023-02-28T08:06:06;103210.47;;;5.18;100.00
19831;BME280;10076;52.008;4.708;2023-02-28T08:08:32;103211.31;;;5.23;100.00
19831;BME280;10076;52.008;4.708;2023-02-28T08:10:59;103219.03;;;5.34;100.00
19831;BME280;10076;52.008;4.708;2023-02-28T08:13:25;103218.91;;;5.44;100.00
19831;BME280;10076;52.008;4.708;2023-02-28T08:15:52;103205.88;;;5.40;100.00
19831;BME280;10076;52.008;4.708;2023-02-28T08:18:18;103210.06;;;5.54;100.00
19831;BME280;10076;52.008;4.708;2023-02-28T08:20:44;103218.81;;;5.53;100.00
19831;BME280;10076;52.008;4.708;2023-02-28T08:23:09;103215.28;;;5.55;100.00
19831;BME280;10076;52.008;4.708;2023-02-28T08:25:34;103207.28;;;5.64;100.00
19831;BME280;10076;52.008;4.708;2023-02-28T08:28:00;103221.16;;;5.72;100.00
19831;BME280;10076;52.008;4.708;2023-02-28T08:30:26;103221.16;;;5.74;100.00
19831;BME280;10076;52.008;4.708;2023-02-28T08:32:51;103222.63;;;5.96;100.00
19831;BME280;10076;52.008;4.708;2023-02-28T08:35:16;103210.38;;;5.98;100.00
19831;BME280;10076;52.008;4.708;2023-02-28T08:37:41;103220.84;;;5.98;100.00
19831;BME280;10076;52.008;4.708;2023-02-28T08:40:07;103216.34;;;6.07;100.00
19831;BME280;10076;52.008;4.708;2023-02-28T08:42:33;103215.28;;;6.18;100.00
19831;BME280;10076;52.008;4.708;2023-02-28T08:44:58;103216.19;;;6.18;100.00
19831;BME280;10076;52.008;4.708;2023-02-28T08:47:23;103210.88;;;6.22;100.00
19831;BME280;10076;52.008;4.708;2023-02-28T08:49:49;103222.94;;;6.33;100.00
19831;BME280;10076;52.008;4.708;2023-02-28T08:52:14;103219.38;;;6.37;100.00
19831;BME280;10076;52.008;4.708;2023-02-28T08:54:40;103220.13;;;6.45;100.00
19831;BME280;10076;52.008;4.708;2023-02-28T08:57:05;103214.03;;;6.43;100.00
19831;BME280;10076;52.008;4.708;2023-02-28T08:59:31;103211.28;;;6.52;100.00
19831;BME280;10076;52.008;4.708;2023-02-28T09:01:57;103215.25;;;6.74;100.00
19831;BME280;10076;52.008;4.708;2023-02-28T09:04:22;103211.78;;;6.72;100.00
19831;BME280;10076;52.008;4.708;2023-02-28T09:06:48;103216.38;;;7.08;100.00
19831;BME280;10076;52.008;4.708;2023-02-28T09:09:14;103217.09;;;7.17;100.00
19831;BME280;10076;52.008;4.708;2023-02-28T09:11:39;103219.75;;;7.16;100.00
19831;BME280;10076;52.008;4.708;2023-02-28T09:14:05;103217.69;;;7.31;100.00
19831;BME280;10076;52.008;4.708;2023-02-28T09:16:34;103225.66;;;7.27;100.00
19831;BME280;10076;52.008;4.708;2023-02-28T09:19:00;103226.63;;;7.21;100.00
19831;BME280;10076;52.008;4.708;2023-02-28T09:21:25;103222.38;;;7.14;100.00
19831;BME280;10076;52.008;4.708;2023-02-28T09:23:51;103227.13;;;7.40;100.00
19831;BME280;10076;52.008;4.708;2023-02-28T09:26:22;103232.19;;;7.50;100.00
19831;BME280;10076;52.008;4.708;2023-02-28T09:28:48;103246.91;;;7.58;100.00
19831;BME280;10076;52.008;4.708;2023-02-28T09:31:16;103228.75;;;7.47;100.00
19831;BME280;10076;52.008;4.708;2023-02-28T09:33:41;103224.50;;;7.40;100.00
19831;BME280;10076;52.008;4.708;2023-02-28T09:36:07;103231.44;;;7.45;100.00
19831;BME280;10076;52.008;4.708;2023-02-28T09:38:33;103231.50;;;7.42;100.00
19831;BME280;10076;52.008;4.708;2023-02-28T09:41:01;103241.66;;;7.58;100.00
19831;BME280;10076;52.008;4.708;2023-02-28T09:43:41;103247.69;;;7.65;100.00
19831;BME280;10076;52.008;4.708;2023-02-28T09:48:51;103248.72;;;7.56;100.00
19831;BME280;10076;52.008;4.708;2023-02-28T09:51:33;103236.88;;;7.36;100.00
19831;BME280;10076;52.008;4.708;2023-02-28T09:53:59;103234.91;;;7.46;100.00
19831;BME280;10076;52.008;4.708;2023-02-28T09:56:32;103241.97;;;7.44;100.00
19831;BME280;10076;52.008;4.708;2023-02-28T10:01:47;103233.13;;;7.48;100.00
19831;BME280;10076;52.008;4.708;2023-02-28T10:04:16;103237.38;;;7.54;100.00
19831;BME280;10076;52.008;4.708;2023-02-28T10:06:51;103230.94;;;7.69;100.00
19831;BME280;10076;52.008;4.708;2023-02-28T10:09:30;103243.28;;;7.65;100.00
19831;BME280;10076;52.008;4.708;2023-02-28T10:12:03;103230.34;;;7.55;100.00
19831;BME280;10076;52.008;4.708;2023-02-28T10:14:32;103246.75;;;7.67;100.00
19831;BME280;10076;52.008;4.708;2023-02-28T10:17:02;103239.75;;;7.66;100.00
19831;BME280;10076;52.008;4.708;2023-02-28T10:19:46;103235.22;;;7.73;100.00
19831;BME280;10076;52.008;4.708;2023-02-28T10:22:27;103239.16;;;7.93;100.00
19831;BME280;10076;52.008;4.708;2023-02-28T10:24:55;103226.63;;;8.04;100.00
19831;BME280;10076;52.008;4.708;2023-02-28T10:27:29;103234.16;;;8.22;100.00
19831;BME280;10076;52.008;4.708;2023-02-28T10:29:57;103230.16;;;8.42;100.00
19831;BME280;10076;52.008;4.708;2023-02-28T10:32:29;103236.47;;;8.70;100.00
19831;BME280;10076;52.008;4.708;2023-02-28T10:35:15;103231.53;;;8.92;100.00
19831;BME280;10076;52.008;4.708;2023-02-28T10:37:42;103231.00;;;9.73;100.00
19831;BME280;10076;52.008;4.708;2023-02-28T10:40:31;103228.34;;;10.58;100.00
19831;BME280;10076;52.008;4.708;2023-02-28T10:43:04;103231.59;;;11.65;100.00
19831;BME280;10076;52.008;4.708;2023-02-28T10:45:32;103219.56;;;13.65;100.00
19831;BME280;10076;52.008;4.708;2023-02-28T10:48:06;103218.47;;;15.78;100.00
19831;BME280;10076;52.008;4.708;2023-02-28T10:50:42;103226.72;;;17.81;100.00
19831;BME280;10076;52.008;4.708;2023-02-28T10:59:02;103229.53;;;22.05;62.15
19831;BME280;10076;52.008;4.708;2023-02-28T11:01:40;103225.09;;;23.10;58.99
19831;BME280;10076;52.008;4.708;2023-02-28T11:07:21;103219.50;;;22.71;51.30
19831;BME280;10076;52.008;4.708;2023-02-28T11:09:52;103226.97;;;23.60;49.56
19831;BME280;10076;52.008;4.708;2023-02-28T11:12:31;103215.41;;;24.57;46.23
19831;BME280;10076;52.008;4.708;2023-02-28T11:15:02;103209.06;;;22.98;42.76
19831;BME280;10076;52.008;4.708;2023-02-28T11:17:31;103213.34;;;21.51;43.78
19831;BME280;10076;52.008;4.708;2023-02-28T11:20:04;103209.44;;;20.28;44.56
19831;BME280;10076;52.008;4.708;2023-02-28T11:22:35;103208.41;;;19.33;49.17
19831;BME280;10076;52.008;4.708;2023-02-28T11:25:09;103211.31;;;19.42;51.49
19831;BME280;10076;52.008;4.708;2023-02-28T11:27:50;103215.41;;;18.04;53.31
19831;BME280;10076;52.008;4.708;2023-02-28T11:30:27;103211.72;;;17.79;51.75
19831;BME280;10076;52.008;4.708;2023-02-28T11:32:53;103198.09;;;17.41;51.42
19831;BME280;10076;52.008;4.708;2023-02-28T11:35:24;103190.28;;;16.95;52.25
19831;BME280;10076;52.008;4.708;2023-02-28T11:37:51;103192.22;;;16.62;52.55
19831;BME280;10076;52.008;4.708;2023-02-28T11:40:27;103191.69;;;15.96;53.35
19831;BME280;10076;52.008;4.708;2023-02-28T11:42:57;103186.16;;;15.68;54.38
19831;BME280;10076;52.008;4.708;2023-02-28T11:45:45;103187.75;;;15.55;54.01
19831;BME280;10076;52.008;4.708;2023-02-28T11:48:33;103188.72;;;17.90;55.68
19831;BME280;10076;52.008;4.708;2023-02-28T11:53:49;103187.19;;;23.32;44.68
19831;BME280;10076;52.008;4.708;2023-02-28T11:56:26;103178.56;;;25.49;42.10
19831;BME280;10076;52.008;4.708;2023-02-28T12:05:18;103184.59;;;29.00;31.77
19831;BME280;10076;52.008;4.708;2023-02-28T12:08:06;103178.66;;;29.91;32.06
19831;BME280;10076;52.008;4.708;2023-02-28T12:10:44;103173.13;;;30.07;30.34
19831;BME280;10076;52.008;4.708;2023-02-28T12:13:26;103178.97;;;29.18;29.49
19831;BME280;10076;52.008;4.708;2023-02-28T12:16:34;103177.78;;;29.44;28.32
19831;BME280;10076;52.008;4.708;2023-02-28T12:27:02;103163.81;;;30.76;27.48
19831;BME280;10076;52.008;4.708;2023-02-28T12:29:46;103173.41;;;31.89;26.85
19831;BME280;10076;52.008;4.708;2023-02-28T12:32:36;103174.03;;;31.19;26.37
19831;BME280;10076;52.008;4.708;2023-02-28T12:37:33;103173.31;;;31.97;27.70
19831;BME280;10076;52.008;4.708;2023-02-28T12:40:03;103162.91;;;32.21;25.86
19831;BME280;10076;52.008;4.708;2023-02-28T12:42:38;103158.13;;;31.94;25.02
19831;BME280;10076;52.008;4.708;2023-02-28T12:45:15;103161.91;;;32.85;26.51
19831;BME280;10076;52.008;4.708;2023-02-28T12:47:44;103158.56;;;32.12;24.49
19831;BME280;10076;52.008;4.708;2023-02-28T12:50:12;103160.28;;;32.13;25.44
19831;BME280;10076;52.008;4.708;2023-02-28T12:53:03;103152.91;;;32.91;24.98
19831;BME280;10076;52.008;4.708;2023-02-28T12:58:33;103141.38;;;33.96;24.44
19831;BME280;10076;52.008;4.708;2023-02-28T13:06:48;103123.38;;;34.41;23.34
19831;BME280;10076;52.008;4.708;2023-02-28T13:09:20;103128.84;;;33.74;24.05
19831;BME280;10076;52.008;4.708;2023-02-28T13:11:55;103130.13;;;33.45;23.34
19831;BME280;10076;52.008;4.708;2023-02-28T13:14:48;103136.28;;;34.72;23.39
19831;BME280;10076;52.008;4.708;2023-02-28T13:17:21;103122.03;;;33.64;22.88
19831;BME280;10076;52.008;4.708;2023-02-28T13:28:00;103101.03;;;33.90;22.44
19831;BME280;10076;52.008;4.708;2023-02-28T13:38:48;103103.78;;;35.02;22.25
19831;BME280;10076;52.008;4.708;2023-02-28T13:44:15;103103.97;;;34.94;21.38
19831;BME280;10076;52.008;4.708;2023-02-28T13:49:25;103095.44;;;35.53;21.70
19831;BME280;10076;52.008;4.708;2023-02-28T13:52:02;103090.28;;;34.68;20.35
19831;BME280;10076;52.008;4.708;2023-02-28T14:05:36;103081.03;;;32.89;21.97
19831;BME280;10076;52.008;4.708;2023-02-28T14:08:08;103079.69;;;33.39;21.79
19831;BME280;10076;52.008;4.708;2023-02-28T14:13:41;103075.69;;;34.74;21.79
19831;BME280;10076;52.008;4.708;2023-02-28T14:16:11;103063.78;;;35.25;20.96
19831;BME280;10076;52.008;4.708;2023-02-28T14:18:41;103060.78;;;35.33;21.33
19831;BME280;10076;52.008;4.708;2023-02-28T14:21:11;103056.41;;;34.35;21.06
19831;BME280;10076;52.008;4.708;2023-02-28T14:26:43;103048.88;;;33.71;21.18
19831;BME280;10076;52.008;4.708;2023-02-28T14:29:36;103051.16;;;34.40;21.13
19831;BME280;10076;52.008;4.708;2023-02-28T14:32:32;103052.19;;;34.20;20.54
19831;BME280;10076;52.008;4.708;2023-02-28T14:35:12;103051.16;;;35.11;21.29
19831;BME280;10076;52.008;4.708;2023-02-28T14:37:42;103053.09;;;34.52;20.93
19831;BME280;10076;52.008;4.708;2023-02-28T14:40:27;103055.69;;;33.88;20.64
19831;BME280;10076;52.008;4.708;2023-02-28T14:42:58;103053.28;;;34.32;20.78
19831;BME280;10076;52.008;4.708;2023-02-28T14:45:27;103046.91;;;34.96;20.98
19831;BME280;10076;52.008;4.708;2023-02-28T14:47:54;103056.19;;;35.14;20.46
19831;BME280;10076;52.008;4.708;2023-02-28T14:50:27;103049.84;;;35.20;20.34